Dulles, VA

1:53 PM EDT on August 22, 2014 (GMT -0400)
Manassas Regional-Davis | Change Station
CLOSE
Current Station
Airport
Location: Manassas,
Elevation: 194 ft
Nearby Weather Stations

Elev 194 ft 38.72 °N, 77.52 °W | Updated 1 hour ago

Mostly Cloudy
Mostly Cloudy
79 °F
Feels Like 79 °F
N
6
Wind Variable Wind from NNE

Today
High -- | Low -- °F
--% Chance of Precip.
Yesterday
High -- | Low -- °F
Precip. -- in
6:29 AM 7:55 PM
Waning Crescent, 7% visible
Pressure 30.00 in
Visibility 10.0 miles
Clouds Mostly Cloudy 6000 ft
Dew Point 70 °F
Humidity 74%
Rainfall 0.02 in
Snow Depth Not available.
UV 5 out of 12
Pollen 8.30 out of 12
Ozone Good
PM2.5 Moderate
Flu Activity Not available.
METAR KHEF 221650Z 02005KT 10SM BKN060 26/21 A3000

More Conditions Fewer Conditions

Pressure 30.00 in
Visibility 10.0 miles
Clouds Mostly Cloudy 6000 ft
Dew Point 70 °F
Humidity 74%
Rainfall 0.02 in
Snow Depth Not available.
UV 5 out of 12
Pollen 8.30 out of 12
Ozone Good
PM2.5 Moderate
Flu Activity Not available.
METAR KHEF 221650Z 02005KT 10SM BKN060 26/21 A3000

More Conditions Fewer Conditions

10-Day Weather Forecast

Almanac

Astronomy

Aug. 22, 2014 Rise Set
Actual Time 6:29 AM EDT 7:55 PM EDT
Civil Twilight 6:01 AM EDT 8:22 PM EDT
Nautical Twilight 5:27 AM EDT 8:56 PM EDT
Astronomical Twilight 4:52 AM EDT 9:31 PM EDT
Moon 3:51 AM EDT 6:01 PM EDT
Length of Visible Light 14h 21m
Length of Day
13h 25m
Tomorrow will be 2m 21s shorter.
Waning Crescent, 7% of the Moon is Illuminated
Today
Waning Crescent
Aug 25
New
Sep 2
First Quarter
Sep 8
Full
Sep 15
Last Quarter

Today's Extremes

State Highs State Lows

Community

WunderPhotos

Upload Photos

1,746,206 photos uploaded!

WunderBlogs® & News

Nearby

Air Quality

  Air Quality AQ Index Pollutant
Yesterday Good
PM10
Yesterday Good
OZONE
Current Moderate
PM2.5
Current Good
OZONE
Friday Moderate
PM2.5
Friday Good
OZONE
Saturday Good
PM2.5
Saturday Good
OZONE
Sunday Good
OZONE
Sunday Good
PM2.5

Snow Depth

Station Depth Elevation
No new snow has been reported.

Earthquake Activity

City Distance Mag. Time & Date
No recent earthquake activity has been reported nearby.
Minimum magnitude displayed is 2.5.

Coastal Water Temperatures

Place Temperature
Washington, DC 79.0 °F
Baltimore, MD 82.0 °F
Solomons Island, MD 80.1 °F

Nearby Weather Stations